Time;durP1;ratioP1;P1;durP2;ratioP2;P2;SDS_P1;SDS_P2;PMS_P1;PMS_P2;Temp;Humidity;BMP_temperature;BMP_pressure;BME280_temperature;BME280_humidity;BME280_pressure;Samples;Min_cycle;Max_cycle;Signal;HPM_P1;HPM_P2
2023/10/21 00:01:57;;;;;;;25.10;5.90;;;;;;;19.72;84.56;96891.22;4469307;32;20101;-74
2023/10/21 00:04:25;;;;;;;14.85;5.25;;;;;;;19.80;83.92;96898.81;4469354;32;20119;-74
2023/10/21 00:06:53;;;;;;;15.63;4.97;;;;;;;19.77;83.88;96892.16;4469332;32;20161;-74
2023/10/21 00:09:21;;;;;;;17.95;4.82;;;;;;;19.84;83.68;96894.62;4469240;32;20097;-74
2023/10/21 00:11:49;;;;;;;21.52;5.35;;;;;;;19.84;83.42;96903.41;4469281;32;20127;-74
2023/10/21 00:14:17;;;;;;;18.08;6.35;;;;;;;19.81;83.44;96903.09;4469255;32;20161;-74
2023/10/21 00:16:45;;;;;;;22.62;4.93;;;;;;;19.81;83.47;96905.75;4478784;32;20112;-74
2023/10/21 00:19:13;;;;;;;16.17;4.60;;;;;;;19.67;84.79;96910.56;4485023;31;20115;-74
2023/10/21 00:21:40;;;;;;;22.83;5.30;;;;;;;19.69;84.42;96916.44;4484856;32;20101;-74
2023/10/21 00:24:08;;;;;;;26.08;5.03;;;;;;;19.63;84.58;96917.38;4484961;32;20092;-74
2023/10/21 00:26:47;;;;;;;25.65;5.28;;;;;;;19.63;84.29;96917.38;4484943;31;20092;-74
2023/10/21 00:29:16;;;;;;;14.40;4.85;;;;;;;19.62;84.40;96908.63;4470016;31;20089;-74
2023/10/21 00:31:44;;;;;;;12.30;4.80;;;;;;;19.68;84.46;96909.50;4469576;32;20109;-74
2023/10/21 00:34:12;;;;;;;15.20;5.12;;;;;;;19.72;84.47;96905.31;4469072;32;20156;-74
2023/10/21 00:36:40;;;;;;;12.93;4.22;;;;;;;19.70;84.34;96899.44;4469373;32;20084;-74
2023/10/21 00:39:10;;;;;;;21.75;5.10;;;;;;;19.79;83.32;96906.00;4468747;32;20093;-74
2023/10/21 00:41:39;;;;;;;20.08;5.93;;;;;;;19.76;84.16;96905.66;4469199;32;20155;-74
2023/10/21 00:44:08;;;;;;;22.90;6.32;;;;;;;19.69;84.48;96925.19;4469242;32;20096;-74
2023/10/21 00:46:36;;;;;;;18.77;5.62;;;;;;;19.61;84.90;96930.13;4469140;32;20092;-74
2023/10/21 00:49:04;;;;;;;20.10;5.03;;;;;;;19.62;85.04;96923.75;4468116;32;20613;-74
2023/10/21 00:51:33;;;;;;;25.73;5.05;;;;;;;19.58;85.61;96926.09;4469156;32;20127;-74
2023/10/21 00:54:01;;;;;;;22.48;5.57;;;;;;;19.63;84.56;96928.00;4468984;32;20118;-74
2023/10/21 00:56:29;;;;;;;19.87;5.12;;;;;;;19.61;85.11;96930.13;4467838;32;20143;-74
2023/10/21 00:58:57;;;;;;;14.18;4.93;;;;;;;19.67;84.61;96929.94;4468989;32;20529;-74
2023/10/21 01:01:25;;;;;;;23.67;5.15;;;;;;;19.61;85.36;96935.44;4469065;32;20093;-74
2023/10/21 01:03:52;;;;;;;21.67;6.97;;;;;;;19.63;84.67;96934.12;4469210;32;20123;-74
2023/10/21 01:06:21;;;;;;;18.87;5.10;;;;;;;19.60;84.99;96931.94;4468977;32;20111;-74
2023/10/21 01:08:48;;;;;;;21.75;6.07;;;;;;;19.69;84.09;96940.34;4469031;32;20089;-74
2023/10/21 01:11:16;;;;;;;20.27;5.62;;;;;;;19.72;84.06;96937.19;4468997;32;20116;-74
2023/10/21 01:13:44;;;;;;;20.77;5.18;;;;;;;19.78;83.70;96935.47;4469081;32;20545;-74
2023/10/21 01:16:12;;;;;;;17.40;5.47;;;;;;;19.91;82.65;96929.81;4474875;32;20137;-74
2023/10/21 01:18:40;;;;;;;18.60;5.68;;;;;;;19.87;82.90;96936.66;4484773;32;20418;-74
2023/10/21 01:21:09;;;;;;;23.92;5.15;;;;;;;19.91;82.66;96935.16;4484344;31;20096;-74
2023/10/21 01:23:37;;;;;;;21.40;5.10;;;;;;;19.81;83.24;96930.47;4484430;31;20088;-74
2023/10/21 01:26:05;;;;;;;16.27;5.82;;;;;;;19.85;83.10;96942.22;4484322;32;20166;-74
2023/10/21 01:28:33;;;;;;;26.25;5.28;;;;;;;19.77;83.77;96944.44;4473944;31;20109;-74
2023/10/21 01:31:01;;;;;;;15.90;5.22;;;;;;;19.66;83.88;96949.59;4468943;32;20097;-73
2023/10/21 01:33:33;;;;;;;18.27;6.45;;;;;;;19.67;84.23;96951.19;4468661;32;20084;-74
2023/10/21 01:36:01;;;;;;;20.67;5.32;;;;;;;19.73;83.95;96956.59;4468366;32;20097;-74
2023/10/21 01:38:29;;;;;;;15.10;5.25;;;;;;;19.66;84.40;96949.59;4469005;32;20171;-74
2023/10/21 01:40:56;;;;;;;19.45;4.93;;;;;;;19.67;84.56;96953.06;4468351;32;20529;-74
2023/10/21 01:43:24;;;;;;;18.75;5.53;;;;;;;19.64;84.36;96945.56;4468527;32;20104;-74
2023/10/21 01:45:52;;;;;;;23.65;5.78;;;;;;;19.62;85.03;96945.00;4468258;32;20164;-74
2023/10/21 01:48:20;;;;;;;18.87;4.80;;;;;;;19.61;84.50;96938.88;4468279;32;20243;-74
2023/10/21 01:50:48;;;;;;;15.27;4.95;;;;;;;19.72;84.11;96942.50;4468442;32;20097;-74
2023/10/21 01:53:16;;;;;;;20.42;5.30;;;;;;;19.72;83.46;96955.78;4470393;32;20451;-74
2023/10/21 01:55:43;;;;;;;26.02;4.97;;;;;;;19.77;83.43;96955.91;4470288;32;20501;-74
2023/10/21 01:58:11;;;;;;;16.60;5.03;;;;;;;19.77;82.84;96950.59;4470077;32;20097;-74
2023/10/21 02:00:39;;;;;;;14.73;4.93;;;;;;;19.81;83.37;96953.59;4470121;32;20086;-74
2023/10/21 02:03:06;;;;;;;17.75;5.47;;;;;;;19.77;83.16;96963.91;4470543;32;20536;-74
2023/10/21 02:05:37;;;;;;;21.98;4.80;;;;;;;19.79;82.78;96968.97;4469932;32;20119;-74
2023/10/21 02:08:04;;;;;;;14.13;5.30;;;;;;;19.78;83.66;96970.00;4470158;32;20460;-74
2023/10/21 02:10:32;;;;;;;20.52;4.90;;;;;;;19.84;82.85;96984.97;4470287;32;20533;-74
2023/10/21 02:13:00;;;;;;;25.83;5.47;;;;;;;19.78;82.55;97000.03;4470113;32;20595;-74
2023/10/21 02:15:27;;;;;;;15.18;4.20;;;;;;;19.83;82.61;96991.34;4471171;32;20092;-74
2023/10/21 02:17:55;;;;;;;15.02;4.60;;;;;;;19.85;82.40;96995.38;4485891;31;20093;-74
2023/10/21 02:20:23;;;;;;;21.55;4.78;;;;;;;19.91;82.17;96998.94;4485760;31;20118;-74
2023/10/21 02:22:51;;;;;;;16.90;4.72;;;;;;;19.81;82.59;97004.87;4486094;32;20092;-74
2023/10/21 02:25:19;;;;;;;14.63;4.62;;;;;;;19.89;82.45;97022.25;4485816;32;20151;-74
2023/10/21 02:27:47;;;;;;;13.48;4.65;;;;;;;19.96;82.16;97036.22;4480168;31;20108;-74
2023/10/21 02:30:20;;;;;;;21.10;4.28;;;;;;;20.03;81.72;97020.91;4469968;32;20096;-74
2023/10/21 02:32:48;;;;;;;22.10;4.25;;;;;;;19.99;81.88;97022.44;4469915;32;20601;-74
2023/10/21 02:35:16;;;;;;;17.42;4.87;;;;;;;20.05;81.52;97015.34;4469842;32;20093;-74
2023/10/21 02:37:45;;;;;;;16.77;5.05;;;;;;;20.07;81.39;97012.47;4470202;32;20134;-74
2023/10/21 02:40:16;;;;;;;24.15;4.47;;;;;;;20.01;81.48;97008.91;4470106;32;20421;-74
2023/10/21 02:42:44;;;;;;;12.63;4.43;;;;;;;20.01;81.98;97008.91;4469881;32;20103;-74
2023/10/21 02:45:13;;;;;;;20.85;4.55;;;;;;;20.13;81.67;97011.50;4469903;32;20161;-73
2023/10/21 02:47:41;;;;;;;21.75;5.37;;;;;;;20.17;81.29;97012.63;4469677;32;20116;-74
2023/10/21 02:50:09;;;;;;;17.10;4.82;;;;;;;20.13;81.67;97008.84;4469951;32;20115;-74
2023/10/21 02:52:39;;;;;;;15.52;4.68;;;;;;;20.11;81.72;97009.06;4469944;32;20153;-74
2023/10/21 02:55:07;;;;;;;14.75;4.22;;;;;;;20.10;81.54;97011.97;4469905;32;20163;-74
2023/10/21 02:57:35;;;;;;;15.00;4.28;;;;;;;20.05;81.71;97017.22;4469682;32;20101;-74
2023/10/21 03:00:10;;;;;;;13.77;4.40;;;;;;;19.94;82.33;97013.56;4469723;32;20086;-73
2023/10/21 03:02:38;;;;;;;17.87;5.03;;;;;;;19.89;82.57;97006.31;4469414;32;20085;-73
2023/10/21 03:05:07;;;;;;;21.10;4.68;;;;;;;19.85;82.91;97021.94;4469812;32;20088;-75
2023/10/21 03:07:35;;;;;;;14.27;4.22;;;;;;;19.84;83.17;97020.31;4469712;32;20081;-74
2023/10/21 03:10:03;;;;;;;16.52;4.75;;;;;;;19.80;84.25;97024.53;4469738;32;20162;-74
2023/10/21 03:12:31;;;;;;;21.70;4.75;;;;;;;19.90;84.54;97023.09;4469659;32;20096;-74
2023/10/21 03:15:00;;;;;;;21.95;5.28;;;;;;;19.89;84.60;97024.12;4469664;32;20088;-74
2023/10/21 03:17:28;;;;;;;14.30;4.40;;;;;;;19.72;85.78;97032.84;4483687;32;20118;-74
2023/10/21 03:19:56;;;;;;;26.95;5.70;;;;;;;19.52;87.65;97043.91;4485316;31;20153;-74
2023/10/21 03:22:25;;;;;;;21.08;5.25;;;;;;;19.21;89.00;97043.28;4485643;32;20114;-74
2023/10/21 03:24:53;;;;;;;15.45;4.18;;;;;;;19.04;90.59;97037.13;4485568;31;20104;-74
2023/10/21 03:27:21;;;;;;;14.27;5.18;;;;;;;18.96;91.18;97025.03;4482601;32;20162;-74
2023/10/21 03:29:49;;;;;;;23.87;4.78;;;;;;;18.92;91.48;97034.50;4469724;32;20112;-74
2023/10/21 03:32:17;;;;;;;16.87;5.50;;;;;;;18.77;93.13;97048.19;4469625;32;20157;-74
2023/10/21 03:34:46;;;;;;;12.18;4.65;;;;;;;18.71;93.57;97057.09;4469501;32;20084;-74
2023/10/21 03:37:13;;;;;;;11.77;4.40;;;;;;;18.76;92.97;97051.91;4469253;32;20092;-73
2023/10/21 03:39:41;;;;;;;14.15;4.03;;;;;;;18.85;92.82;97050.53;4469570;32;20271;-73
2023/10/21 03:42:09;;;;;;;17.30;5.03;;;;;;;18.86;92.26;97046.84;4469467;32;20084;-74
2023/10/21 03:44:37;;;;;;;19.42;4.37;;;;;;;18.85;92.38;97057.66;4469855;32;20160;-73
2023/10/21 03:47:05;;;;;;;14.48;4.43;;;;;;;18.87;92.51;97063.56;4469371;32;20146;-74
2023/10/21 03:49:33;;;;;;;17.08;4.20;;;;;;;18.88;93.12;97055.38;4469447;32;20097;-74
2023/10/21 03:52:01;;;;;;;15.05;3.83;;;;;;;18.97;95.03;97061.94;4469432;32;20089;-73
2023/10/21 03:54:28;;;;;;;16.35;4.75;;;;;;;19.16;95.09;97075.06;4469402;32;20500;-74
2023/10/21 03:56:56;;;;;;;17.12;4.10;;;;;;;19.39;95.42;97094.63;4469232;32;20123;-74
2023/10/21 03:59:24;;;;;;;20.05;4.28;;;;;;;19.76;94.62;97096.97;4469333;32;20093;-74
2023/10/21 04:01:52;;;;;;;19.42;4.18;;;;;;;19.85;93.07;97100.88;4469456;32;20501;-74
2023/10/21 04:04:19;;;;;;;16.25;4.28;;;;;;;19.91;92.47;97101.75;4469427;32;20842;-74
2023/10/21 04:06:47;;;;;;;14.15;4.12;;;;;;;19.95;91.61;97108.22;4469419;32;20567;-74
2023/10/21 04:09:15;;;;;;;19.52;4.00;;;;;;;20.01;90.23;97109.91;4469115;32;20168;-73
2023/10/21 04:11:43;;;;;;;12.27;4.07;;;;;;;19.85;90.74;97114.94;4469654;32;20153;-74
2023/10/21 04:14:11;;;;;;;25.25;4.62;;;;;;;19.85;90.77;97120.28;4468547;32;20119;-74
2023/10/21 04:16:44;;;;;;;18.95;4.43;;;;;;;19.80;90.71;97124.69;4477894;32;20096;-74
2023/10/21 04:19:11;;;;;;;23.67;4.82;;;;;;;19.74;91.45;97131.69;4484902;31;20166;-74
2023/10/21 04:21:39;;;;;;;14.00;4.30;;;;;;;19.79;92.59;97133.72;4484863;32;20080;-74
2023/10/21 04:24:07;;;;;;;18.75;3.90;;;;;;;19.81;93.99;97134.28;4484843;32;20167;-74
2023/10/21 04:26:35;;;;;;;21.52;4.22;;;;;;;19.88;93.81;97134.94;4484962;31;20084;-73
2023/10/21 04:29:04;;;;;;;16.17;4.12;;;;;;;19.87;96.50;97146.59;4471298;32;20124;-73
2023/10/21 04:31:35;;;;;;;26.83;4.57;;;;;;;19.90;98.63;97142.69;4469241;32;20085;-74
2023/10/21 04:34:03;;;;;;;20.33;4.03;;;;;;;19.84;100.00;97141.78;4468925;32;20084;-73
2023/10/21 04:36:31;;;;;;;16.12;3.50;;;;;;;19.78;100.00;97142.72;4469530;32;20730;-74
2023/10/21 04:38:58;;;;;;;23.25;4.32;;;;;;;19.68;100.00;97149.41;4468984;32;20136;-73
2023/10/21 04:41:27;;;;;;;25.15;3.90;;;;;;;19.66;100.00;97156.78;4469145;32;20084;-73
2023/10/21 04:43:55;;;;;;;15.90;2.53;;;;;;;19.68;100.00;97159.22;4469435;32;20118;-73
2023/10/21 04:46:23;;;;;;;16.35;2.90;;;;;;;19.61;100.00;97155.91;4469140;32;20133;-74
2023/10/21 04:48:51;;;;;;;20.73;4.93;;;;;;;19.45;100.00;97165.41;4469200;32;20101;-74
2023/10/21 04:51:19;;;;;;;7.28;1.77;;;;;;;19.39;100.00;97169.00;4469074;32;20166;-74
2023/10/21 04:53:47;;;;;;;18.45;3.08;;;;;;;19.35;100.00;97178.44;4469243;32;20088;-73
2023/10/21 04:56:15;;;;;;;15.50;2.05;;;;;;;19.21;100.00;97185.84;4468973;32;20085;-73
2023/10/21 04:58:42;;;;;;;11.32;2.55;;;;;;;19.11;100.00;97189.09;4468822;32;20526;-73
2023/10/21 05:01:10;;;;;;;9.95;1.92;;;;;;;18.92;100.00;97199.81;4469109;32;20158;-73
2023/10/21 05:03:38;;;;;;;14.55;3.08;;;;;;;18.87;100.00;97196.25;4468807;32;20092;-73
2023/10/21 05:06:06;;;;;;;10.93;2.00;;;;;;;18.78;100.00;97195.72;4469031;32;20168;-73
2023/10/21 05:08:34;;;;;;;12.48;2.72;;;;;;;18.69;100.00;97199.75;4468823;32;20124;-73
2023/10/21 05:11:02;;;;;;;9.18;2.28;;;;;;;18.63;100.00;97190.84;4468994;32;20119;-73
2023/10/21 05:13:30;;;;;;;9.63;2.22;;;;;;;18.56;100.00;97183.00;4468924;32;20088;-74
2023/10/21 05:15:57;;;;;;;15.80;2.58;;;;;;;18.53;100.00;97175.53;4473037;32;20100;-73
2023/10/21 05:18:25;;;;;;;11.52;2.35;;;;;;;18.31;100.00;97161.97;4484574;31;20120;-74
2023/10/21 05:20:53;;;;;;;14.52;2.78;;;;;;;18.33;100.00;97175.00;4484462;31;20084;-73
2023/10/21 05:23:20;;;;;;;11.75;2.28;;;;;;;18.22;100.00;97174.72;4484637;31;20149;-73
2023/10/21 05:25:47;;;;;;;8.40;2.20;;;;;;;18.33;100.00;97177.66;4483974;32;20554;-73
2023/10/21 05:28:15;;;;;;;11.63;2.47;;;;;;;18.31;100.00;97150.56;4476380;32;20374;-73
2023/10/21 05:30:43;;;;;;;8.75;1.90;;;;;;;18.23;100.00;97154.34;4468478;32;20085;-74
2023/10/21 05:33:10;;;;;;;16.58;2.67;;;;;;;18.19;100.00;97159.28;4468955;32;20119;-74
2023/10/21 05:35:37;;;;;;;7.90;1.75;;;;;;;18.18;100.00;97160.31;4465985;32;76354;-74
2023/10/21 05:38:04;;;;;;;9.70;2.47;;;;;;;18.06;100.00;97159.44;4468919;32;20131;-73
2023/10/21 05:40:32;;;;;;;7.55;1.75;;;;;;;18.05;100.00;97158.66;4468437;32;20093;-73
2023/10/21 05:42:59;;;;;;;12.65;2.35;;;;;;;17.97;100.00;97150.19;4468659;32;20080;-73
2023/10/21 05:45:26;;;;;;;9.82;2.62;;;;;;;17.97;100.00;97164.28;4468392;32;20738;-73
2023/10/21 05:47:54;;;;;;;8.30;1.73;;;;;;;18.03;100.00;97170.50;4468500;32;20162;-73
2023/10/21 05:50:24;;;;;;;12.15;2.12;;;;;;;18.07;100.00;97187.56;4468421;32;20104;-74
2023/10/21 05:52:52;;;;;;;10.20;2.10;;;;;;;18.25;100.00;97189.37;4468470;32;20120;-73
2023/10/21 05:55:19;;;;;;;7.68;2.20;;;;;;;18.13;100.00;97196.47;4468344;32;20399;-73
2023/10/21 05:57:46;;;;;;;12.60;2.35;;;;;;;18.14;100.00;97201.56;4468330;32;20093;-73
2023/10/21 06:00:14;;;;;;;13.88;2.03;;;;;;;18.11;100.00;97214.44;4468181;32;20092;-74
2023/10/21 06:02:42;;;;;;;8.43;2.30;;;;;;;18.13;100.00;97226.44;4468197;32;20590;-74
2023/10/21 06:05:09;;;;;;;7.37;1.77;;;;;;;18.13;100.00;97237.03;4468426;32;20116;-73
2023/10/21 06:07:36;;;;;;;10.63;2.60;;;;;;;18.07;100.00;97267.06;4468134;32;20109;-73
2023/10/21 06:10:05;;;;;;;6.65;1.77;;;;;;;18.04;100.00;97260.38;4468109;32;20157;-73
2023/10/21 06:12:32;;;;;;;13.75;2.50;;;;;;;18.07;100.00;97273.19;4468163;32;20100;-73
2023/10/21 06:15:02;;;;;;;11.25;2.17;;;;;;;17.97;100.00;97286.16;4468053;32;20096;-74
2023/10/21 06:17:29;;;;;;;13.57;2.55;;;;;;;17.93;100.00;97303.53;4482271;32;20151;-73
2023/10/21 06:19:56;;;;;;;6.22;1.65;;;;;;;17.95;100.00;97295.34;4483498;32;20145;-74
2023/10/21 06:22:23;;;;;;;10.18;2.08;;;;;;;17.95;100.00;97295.34;4483613;32;20118;-73
2023/10/21 06:24:50;;;;;;;6.55;1.70;;;;;;;17.98;100.00;97316.91;4483480;32;20447;-73
2023/10/21 06:27:18;;;;;;;5.93;1.98;;;;;;;18.00;100.00;97319.34;4481467;31;20390;-73
2023/10/21 06:29:45;;;;;;;6.47;1.92;;;;;;;18.03;100.00;97318.87;4467845;32;20127;-73
2023/10/21 06:32:12;;;;;;;12.13;1.90;;;;;;;17.96;100.00;97318.19;4467842;32;20088;-73
2023/10/21 06:34:41;;;;;;;6.50;2.62;;;;;;;17.93;100.00;97319.41;4467484;32;20093;-73
2023/10/21 06:37:10;;;;;;;5.32;1.65;;;;;;;17.96;100.00;97326.13;4467729;32;20111;-73
2023/10/21 06:39:37;;;;;;;6.00;1.60;;;;;;;17.94;100.00;97325.50;4469719;32;20576;-73
2023/10/21 06:42:05;;;;;;;5.62;1.48;;;;;;;17.93;100.00;97331.88;4469965;32;20123;-73
2023/10/21 06:44:32;;;;;;;7.80;1.77;;;;;;;17.95;100.00;97333.25;4469879;32;20185;-73
2023/10/21 06:46:59;;;;;;;10.65;1.87;;;;;;;17.97;100.00;97346.28;4470025;32;20093;-73
2023/10/21 06:49:27;;;;;;;15.18;2.72;;;;;;;17.96;100.00;97349.97;4470043;32;20454;-73
2023/10/21 06:51:55;;;;;;;6.75;1.95;;;;;;;17.96;100.00;97344.69;4470069;32;20092;-74
2023/10/21 06:54:22;;;;;;;8.63;2.35;;;;;;;17.91;100.00;97358.56;4470013;32;20084;-73
2023/10/21 06:56:49;;;;;;;5.78;1.20;;;;;;;17.97;100.00;97370.13;4469749;32;20093;-73
2023/10/21 06:59:17;;;;;;;11.07;1.80;;;;;;;18.01;100.00;97358.84;4469898;32;20097;-73
2023/10/21 07:01:44;;;;;;;8.65;2.15;;;;;;;17.98;100.00;97361.16;4469679;32;20119;-73
2023/10/21 07:04:13;;;;;;;10.02;2.05;;;;;;;18.05;100.00;97369.84;4469825;32;20093;-74
2023/10/21 07:06:41;;;;;;;11.60;2.22;;;;;;;18.00;100.00;97356.44;4469862;32;20146;-73
2023/10/21 07:09:11;;;;;;;8.40;1.95;;;;;;;17.95;100.00;97364.25;4470031;32;20153;-73
2023/10/21 07:11:38;;;;;;;11.12;1.52;;;;;;;17.92;100.00;97352.22;4469776;32;20455;-73
2023/10/21 07:14:08;;;;;;;4.43;1.40;;;;;;;17.88;100.00;97359.78;4469749;32;20092;-74
2023/10/21 07:16:35;;;;;;;7.80;1.80;;;;;;;17.86;100.00;97367.12;4477966;32;20097;-74
2023/10/21 07:19:03;;;;;;;8.38;1.87;;;;;;;17.85;100.00;97360.22;4485458;31;20783;-74
2023/10/21 07:21:30;;;;;;;7.65;1.73;;;;;;;17.89;100.00;97361.41;4485216;31;20087;-74
2023/10/21 07:23:58;;;;;;;5.72;1.52;;;;;;;17.85;100.00;97356.75;4485822;31;20145;-73
2023/10/21 07:26:25;;;;;;;5.82;1.15;;;;;;;17.87;100.00;97384.66;4485474;32;20161;-74
2023/10/21 07:28:52;;;;;;;6.40;1.42;;;;;;;17.94;100.00;97384.63;4472952;32;20117;-73
2023/10/21 07:31:20;;;;;;;6.07;1.77;;;;;;;17.96;100.00;97410.91;4469740;32;20441;-73
2023/10/21 07:33:50;;;;;;;6.37;1.95;;;;;;;18.01;100.00;97419.81;4469313;32;20085;-73
2023/10/21 07:36:17;;;;;;;4.43;1.60;;;;;;;17.90;100.00;97429.28;4469893;32;20089;-73
2023/10/21 07:38:45;;;;;;;11.98;1.75;;;;;;;17.91;100.00;97420.31;4469463;32;20135;-73
2023/10/21 07:41:12;;;;;;;9.10;2.03;;;;;;;17.97;100.00;97420.47;4469270;32;20115;-74
2023/10/21 07:43:39;;;;;;;6.22;1.50;;;;;;;17.91;100.00;97425.63;4469430;32;20089;-74
2023/10/21 07:46:07;;;;;;;4.97;1.37;;;;;;;17.86;100.00;97427.25;4469406;32;20101;-73
2023/10/21 07:48:34;;;;;;;5.03;1.35;;;;;;;17.98;100.00;97433.50;4469193;32;20488;-73
2023/10/21 07:51:01;;;;;;;4.75;1.10;;;;;;;17.88;100.00;97433.97;4469428;32;20093;-73
2023/10/21 07:53:29;;;;;;;7.30;1.87;;;;;;;17.91;100.00;97427.44;4469386;32;20100;-73
2023/10/21 07:55:56;;;;;;;7.45;1.75;;;;;;;17.89;100.00;97440.09;4469637;32;20089;-73
2023/10/21 07:58:23;;;;;;;6.53;1.40;;;;;;;17.96;100.00;97437.41;4469342;32;20436;-73
2023/10/21 08:00:51;;;;;;;3.55;1.80;;;;;;;17.96;100.00;97451.47;4469178;32;20092;-73
2023/10/21 08:03:19;;;;;;;5.28;1.58;;;;;;;17.99;100.00;97448.37;4469553;32;20131;-73
2023/10/21 08:05:50;;;;;;;5.12;1.30;;;;;;;18.05;100.00;97459.94;4469395;32;20100;-73
2023/10/21 08:08:18;;;;;;;4.10;1.30;;;;;;;18.09;100.00;97450.50;4469307;32;20157;-73
2023/10/21 08:10:45;;;;;;;7.12;1.37;;;;;;;18.14;100.00;97455.16;4469362;32;20104;-74
2023/10/21 08:13:12;;;;;;;3.92;1.37;;;;;;;18.13;100.00;97467.62;4469150;32;20549;-73
2023/10/21 08:15:39;;;;;;;6.50;1.10;;;;;;;18.14;100.00;97485.16;4471549;32;20560;-74
2023/10/21 08:18:07;;;;;;;5.55;1.20;;;;;;;18.17;100.00;97484.72;4484823;32;20145;-73
2023/10/21 08:20:34;;;;;;;1.62;0.90;;;;;;;18.18;100.00;97489.00;4484950;31;20561;-73
2023/10/21 08:23:02;;;;;;;6.87;1.40;;;;;;;18.30;100.00;97493.56;4485042;32;20470;-73
2023/10/21 08:25:29;;;;;;;6.95;1.15;;;;;;;18.36;100.00;97495.34;4484896;32;20221;-73
2023/10/21 08:27:56;;;;;;;6.57;2.30;;;;;;;18.37;100.00;97505.72;4478822;32;20446;-74
2023/10/21 08:30:23;;;;;;;7.10;1.70;;;;;;;18.39;100.00;97505.50;4469081;32;20515;-73
2023/10/21 08:32:51;;;;;;;6.10;1.52;;;;;;;18.50;100.00;97512.78;4469421;32;20119;-73
2023/10/21 08:35:19;;;;;;;3.78;1.30;;;;;;;18.47;100.00;97512.38;4469117;32;20731;-74
2023/10/21 08:37:46;;;;;;;7.50;1.05;;;;;;;18.53;100.00;97507.03;4469017;32;20166;-74
2023/10/21 08:40:15;;;;;;;2.03;1.37;;;;;;;18.55;100.00;97502.28;4469173;32;20108;-73
2023/10/21 08:42:42;;;;;;;3.62;0.90;;;;;;;18.63;100.00;97493.25;4468946;32;20141;-73
2023/10/21 08:45:30;;;;;;;4.65;1.40;;;;;;;18.74;100.00;97505.78;4468413;32;20093;-74
2023/10/21 08:47:58;;;;;;;4.53;1.10;;;;;;;18.88;100.00;97501.16;4469114;32;20100;-73
2023/10/21 08:50:26;;;;;;;5.25;1.20;;;;;;;18.87;100.00;97504.84;4469206;32;20088;-74
2023/10/21 08:52:55;;;;;;;4.00;1.17;;;;;;;19.09;100.00;97512.34;4468900;32;20101;-74
2023/10/21 08:55:23;;;;;;;2.50;1.00;;;;;;;19.11;100.00;97523.56;4468001;32;20101;-74
2023/10/21 08:57:51;;;;;;;6.75;1.20;;;;;;;19.07;100.00;97522.38;4468926;32;20462;-74
2023/10/21 09:00:19;;;;;;;3.22;0.90;;;;;;;18.88;100.00;97522.41;4468572;32;20367;-73
2023/10/21 09:02:47;;;;;;;4.03;0.95;;;;;;;18.88;100.00;97535.66;4468623;32;20115;-74
2023/10/21 09:05:17;;;;;;;6.75;1.37;;;;;;;18.94;100.00;97547.22;4468936;32;20089;-73
2023/10/21 09:07:45;;;;;;;6.80;1.05;;;;;;;18.81;100.00;97545.50;4468830;32;20126;-73
2023/10/21 09:10:14;;;;;;;7.35;0.98;;;;;;;18.87;100.00;97541.19;4468782;32;20088;-74
2023/10/21 09:12:41;;;;;;;2.00;0.62;;;;;;;18.77;100.00;97550.44;4468676;32;20092;-73
2023/10/21 09:15:09;;;;;;;3.30;0.82;;;;;;;18.77;100.00;97560.22;4467523;32;20154;-74
2023/10/21 09:17:39;;;;;;;2.72;1.00;;;;;;;18.76;100.00;97578.00;4483691;32;20229;-73
2023/10/21 09:20:13;;;;;;;6.05;1.02;;;;;;;18.74;100.00;97573.94;4484295;31;20108;-73
2023/10/21 09:22:43;;;;;;;4.47;0.90;;;;;;;18.64;100.00;97582.41;4484267;31;20472;-73
2023/10/21 09:25:14;;;;;;;3.25;1.05;;;;;;;18.60;100.00;97583.88;4484237;31;20172;-73
2023/10/21 09:27:43;;;;;;;2.45;1.00;;;;;;;18.47;100.00;97576.03;4479738;31;20474;-74
2023/10/21 09:30:15;;;;;;;2.90;0.75;;;;;;;18.50;100.00;97568.47;4468580;32;20172;-73
2023/10/21 09:32:43;;;;;;;3.90;0.98;;;;;;;18.48;100.00;97565.19;4468621;32;20084;-74
2023/10/21 09:35:24;;;;;;;4.87;1.00;;;;;;;18.54;100.00;97561.66;4468531;32;20156;-73
2023/10/21 09:37:51;;;;;;;5.10;1.27;;;;;;;18.66;100.00;97566.28;4468638;32;20438;-74
2023/10/21 09:40:19;;;;;;;6.32;1.02;;;;;;;18.71;100.00;97567.25;4468533;32;20097;-73
2023/10/21 09:42:52;;;;;;;2.87;0.93;;;;;;;18.88;100.00;97566.69;4468336;32;20164;-73
2023/10/21 09:45:21;;;;;;;3.15;0.93;;;;;;;19.04;100.00;97565.31;4468729;32;20101;-73
2023/10/21 09:47:52;;;;;;;3.25;0.70;;;;;;;19.03;100.00;97566.31;4468346;32;20508;-74
2023/10/21 09:50:20;;;;;;;1.95;0.70;;;;;;;19.12;100.00;97567.66;4468384;32;20141;-73
2023/10/21 09:53:05;;;;;;;2.37;1.00;;;;;;;19.10;100.00;97567.06;4467020;32;20088;-74
2023/10/21 09:55:34;;;;;;;5.68;0.82;;;;;;;19.19;100.00;97565.72;4467140;32;20593;-74
2023/10/21 09:58:03;;;;;;;3.00;1.10;;;;;;;19.24;100.00;97567.72;4466868;32;20105;-73
2023/10/21 10:00:31;;;;;;;2.53;0.65;;;;;;;19.31;100.00;97573.75;4468202;32;20158;-73
2023/10/21 10:02:59;;;;;;;5.28;0.98;;;;;;;19.48;100.00;97576.63;4466875;32;20149;-73
2023/10/21 10:05:27;;;;;;;7.87;0.98;;;;;;;19.68;100.00;97573.69;4468174;32;20118;-73
2023/10/21 10:07:59;;;;;;;4.43;1.10;;;;;;;19.79;100.00;97570.31;4468203;32;20093;-74
2023/10/21 10:10:27;;;;;;;4.78;1.23;;;;;;;19.78;100.00;97567.88;4468035;32;20119;-74
2023/10/21 10:12:58;;;;;;;7.40;0.93;;;;;;;19.94;100.00;97556.63;4455202;32;20092;-73
2023/10/21 10:15:34;;;;;;;6.35;1.00;;;;;;;20.09;100.00;97555.34;4469615;32;20096;-73
2023/10/21 10:18:04;;;;;;;7.65;1.20;;;;;;;20.15;100.00;97551.78;4486160;31;20084;-73
2023/10/21 10:20:45;;;;;;;3.05;0.90;;;;;;;20.32;100.00;97538.66;4485753;31;20084;-73
2023/10/21 10:23:13;;;;;;;5.05;1.40;;;;;;;20.49;100.00;97533.44;4485998;31;20091;-74
2023/10/21 10:25:46;;;;;;;4.12;1.10;;;;;;;20.62;100.00;97546.53;4485719;32;20475;-74
2023/10/21 10:28:19;;;;;;;5.75;1.10;;;;;;;20.64;100.00;97538.31;4477757;31;20097;-74
2023/10/21 10:30:51;;;;;;;2.60;0.90;;;;;;;20.70;100.00;97534.75;4470397;32;20138;-74
2023/10/21 10:33:28;;;;;;;5.70;1.27;;;;;;;20.81;100.00;97543.75;4470123;32;20116;-74
2023/10/21 10:35:57;;;;;;;5.62;1.15;;;;;;;20.96;100.00;97532.63;4469929;32;20127;-74
2023/10/21 10:38:36;;;;;;;10.45;1.37;;;;;;;20.99;100.00;97516.97;4470043;32;20100;-74
2023/10/21 10:41:10;;;;;;;7.53;1.20;;;;;;;20.95;100.00;97510.50;4470046;32;20149;-74
2023/10/21 10:43:56;;;;;;;3.10;1.20;;;;;;;20.87;100.00;97518.84;4469972;32;20060;-74
2023/10/21 10:46:23;;;;;;;7.45;1.35;;;;;;;20.79;100.00;97521.84;4470015;32;20479;-74
2023/10/21 10:48:51;;;;;;;6.57;1.58;;;;;;;20.70;100.00;97522.22;4469820;32;20160;-74
2023/10/21 10:51:21;;;;;;;7.82;1.10;;;;;;;20.60;100.00;97532.63;4470200;32;20162;-74
2023/10/21 10:53:57;;;;;;;5.72;1.50;;;;;;;20.55;100.00;97535.97;4469986;32;20077;-74
2023/10/21 10:56:27;;;;;;;8.13;1.40;;;;;;;20.48;100.00;97529.16;4470148;32;20124;-74
2023/10/21 10:58:54;;;;;;;9.88;1.50;;;;;;;20.61;100.00;97539.56;4470052;32;20138;-74
2023/10/21 11:01:26;;;;;;;11.38;1.90;;;;;;;20.57;100.00;97546.37;4469791;32;20085;-74
2023/10/21 11:03:58;;;;;;;9.52;1.80;;;;;;;20.49;100.00;97538.75;4469874;32;20077;-74
2023/10/21 11:06:31;;;;;;;6.87;1.48;;;;;;;20.69;100.00;97541.91;4469829;32;20081;-74
2023/10/21 11:08:59;;;;;;;8.45;1.87;;;;;;;20.86;100.00;97546.50;4469887;32;20080;-74
2023/10/21 11:11:27;;;;;;;9.45;1.50;;;;;;;21.01;100.00;97554.00;4469623;32;20111;-74
2023/10/21 11:13:55;;;;;;;10.57;1.92;;;;;;;21.05;100.00;97552.50;4469745;32;20470;-74
2023/10/21 11:16:23;;;;;;;6.87;1.40;;;;;;;21.03;100.00;97574.03;4476483;32;20092;-74
2023/10/21 11:18:52;;;;;;;10.07;2.00;;;;;;;21.03;100.00;97573.22;4484263;32;20100;-74
2023/10/21 11:21:41;;;;;;;8.38;1.60;;;;;;;21.00;100.00;97571.03;4485141;31;20146;-74
2023/10/21 11:24:10;;;;;;;3.53;1.10;;;;;;;21.21;100.00;97561.59;4485063;31;20115;-74
2023/10/21 11:26:38;;;;;;;8.57;1.75;;;;;;;21.25;100.00;97566.22;4485191;32;20164;-74
2023/10/21 11:29:06;;;;;;;6.40;1.25;;;;;;;21.27;100.00;97561.50;4471705;31;20096;-74
2023/10/21 11:31:34;;;;;;;12.95;1.98;;;;;;;21.24;100.00;97575.28;4469461;32;20088;-74